Time;durP1;ratioP1;P1;durP2;ratioP2;P2;SDS_P1;SDS_P2;PMS_P1;PMS_P2;Temp;Humidity;BMP_temperature;BMP_pressure;BME280_temperature;BME280_humidity;BME280_pressure;Samples;Min_cycle;Max_cycle;Signal;HPM_P1;HPM_P2
2022/04/14 00:01:36;;;;;;;48.55;24.35;;;;;;;7.25;72.82;100925.00;5118930;28;20023;-67
2022/04/14 00:04:02;;;;;;;50.63;24.85;;;;;;;7.22;72.79;100933.22;5121270;28;20419;-64
2022/04/14 00:06:27;;;;;;;47.88;24.50;;;;;;;7.05;72.97;100910.28;5118094;28;20047;-65
2022/04/14 00:08:53;;;;;;;51.92;23.17;;;;;;;7.13;73.31;100928.47;5121117;27;20020;-65
2022/04/14 00:11:19;;;;;;;41.28;22.85;;;;;;;7.14;72.78;100927.50;5104410;27;20046;-64
2022/04/14 00:13:45;;;;;;;41.78;21.00;;;;;;;7.07;72.34;100927.88;5124913;27;20024;-65
2022/04/14 00:16:10;;;;;;;41.35;22.23;;;;;;;7.08;72.87;100928.75;5115426;27;20040;-64
2022/04/14 00:18:36;;;;;;;40.63;22.23;;;;;;;7.00;73.93;100915.06;5127741;27;20027;-67
2022/04/14 00:21:01;;;;;;;41.20;22.23;;;;;;;7.03;74.22;100923.69;5126798;27;20070;-67
2022/04/14 00:23:27;;;;;;;35.88;19.83;;;;;;;7.03;74.59;100927.34;5121165;27;20672;-68
2022/04/14 00:25:53;;;;;;;39.65;22.30;;;;;;;6.95;74.89;100917.16;5121012;27;20059;-67
2022/04/14 00:28:18;;;;;;;38.97;22.05;;;;;;;6.94;75.08;100918.13;5131309;27;20514;-68
2022/04/14 00:30:43;;;;;;;37.08;22.10;;;;;;;6.84;75.00;100907.16;5117820;27;20084;-68
2022/04/14 00:33:09;;;;;;;36.47;20.58;;;;;;;6.89;74.74;100922.88;5118886;27;20024;-67
2022/04/14 00:35:34;;;;;;;41.47;22.08;;;;;;;6.88;74.75;100931.81;5107395;27;20023;-68
2022/04/14 00:38:00;;;;;;;41.80;21.70;;;;;;;6.86;74.07;100928.38;5115829;27;20096;-68
2022/04/14 00:40:26;;;;;;;38.40;20.23;;;;;;;6.80;74.77;100921.63;5121551;27;20030;-67
2022/04/14 00:42:51;;;;;;;43.95;21.80;;;;;;;6.77;74.75;100924.50;5102161;27;20027;-68
2022/04/14 00:45:17;;;;;;;36.08;20.77;;;;;;;6.73;75.49;100927.44;5125427;27;20495;-67
2022/04/14 00:47:43;;;;;;;41.10;20.48;;;;;;;6.63;75.34;100918.31;5101433;27;20114;-67
2022/04/14 00:50:09;;;;;;;40.88;21.42;;;;;;;6.66;75.34;100923.44;5109069;27;20069;-67
2022/04/14 00:52:34;;;;;;;38.28;20.75;;;;;;;6.59;75.42;100923.00;5120489;27;20026;-68
2022/04/14 00:55:00;;;;;;;37.95;19.92;;;;;;;6.57;76.35;100914.22;5122733;27;20027;-67
2022/04/14 00:57:25;;;;;;;32.92;19.45;;;;;;;6.50;75.68;100918.22;5128536;27;20487;-68
2022/04/14 00:59:51;;;;;;;32.50;18.83;;;;;;;6.51;76.08;100924.38;5120398;27;20031;-68
2022/04/14 01:02:16;;;;;;;37.92;19.33;;;;;;;6.46;75.94;100927.38;5121585;27;20034;-68
2022/04/14 01:04:43;;;;;;;32.10;17.60;;;;;;;6.45;76.30;100927.47;5128482;27;20029;-68
2022/04/14 01:07:09;;;;;;;32.75;17.75;;;;;;;6.34;76.68;100920.13;5120074;27;20038;-67
2022/04/14 01:09:36;;;;;;;28.05;17.17;;;;;;;6.37;77.29;100935.91;5121035;27;20064;-68
2022/04/14 01:12:03;;;;;;;27.58;16.92;;;;;;;6.31;76.87;100925.63;5120016;27;20049;-67
2022/04/14 01:14:37;;;;;;;32.10;18.00;;;;;;;6.16;76.36;100910.56;5112987;28;20081;-68
2022/04/14 01:17:06;;;;;;;30.17;17.65;;;;;;;6.25;76.83;100931.31;5116359;27;20019;-68
2022/04/14 01:19:32;;;;;;;29.50;16.40;;;;;;;6.13;77.07;100909.91;5119734;27;20528;-68
2022/04/14 01:22:08;;;;;;;27.92;17.35;;;;;;;6.18;77.03;100914.00;5119137;27;20113;-68
2022/04/14 01:24:35;;;;;;;28.50;16.77;;;;;;;6.14;77.10;100917.81;5126290;27;20035;-67
2022/04/14 01:27:01;;;;;;;29.77;16.73;;;;;;;6.10;77.63;100916.25;5128407;27;20565;-67
2022/04/14 01:29:28;;;;;;;32.10;18.80;;;;;;;6.08;77.91;100915.50;5117288;27;20338;-68
2022/04/14 01:31:54;;;;;;;31.25;15.98;;;;;;;6.06;77.71;100929.88;5126627;27;20019;-67
2022/04/14 01:34:20;;;;;;;29.90;17.48;;;;;;;6.01;77.64;100927.47;5130465;27;20108;-68
2022/04/14 01:36:46;;;;;;;30.25;16.27;;;;;;;5.96;78.31;100920.69;5125533;27;20042;-67
2022/04/14 01:39:13;;;;;;;28.45;16.10;;;;;;;5.95;78.39;100924.31;5123702;27;20031;-67
2022/04/14 01:41:39;;;;;;;27.13;16.45;;;;;;;5.98;78.08;100934.78;5119656;27;20094;-68
2022/04/14 01:44:05;;;;;;;30.30;16.20;;;;;;;5.96;78.24;100931.31;5122239;27;20239;-68
2022/04/14 01:46:31;;;;;;;32.75;16.02;;;;;;;5.92;78.49;100930.66;5123554;27;20026;-68
2022/04/14 01:48:59;;;;;;;28.85;15.60;;;;;;;5.87;78.58;100931.91;5118277;27;20027;-68
2022/04/14 01:51:26;;;;;;;28.80;15.88;;;;;;;5.86;78.73;100930.16;5104416;27;20043;-68
2022/04/14 01:53:51;;;;;;;27.90;16.83;;;;;;;5.83;78.25;100931.22;5119995;27;20031;-68
2022/04/14 01:56:18;;;;;;;28.58;15.95;;;;;;;5.81;79.05;100932.22;5123210;27;20092;-68
2022/04/14 01:58:44;;;;;;;30.17;15.65;;;;;;;5.78;79.24;100932.41;5120517;27;20362;-67
2022/04/14 02:01:09;;;;;;;27.52;16.15;;;;;;;5.77;79.50;100926.19;5120418;27;20045;-68
2022/04/14 02:03:35;;;;;;;25.42;15.82;;;;;;;5.75;79.71;100921.94;5122269;27;20035;-67
2022/04/14 02:06:01;;;;;;;34.63;16.65;;;;;;;5.72;79.61;100930.09;5120248;27;20023;-67
2022/04/14 02:08:26;;;;;;;32.97;16.52;;;;;;;5.65;79.94;100918.09;5098162;27;20522;-68
2022/04/14 02:10:52;;;;;;;26.90;16.60;;;;;;;5.59;79.40;100919.31;5121185;27;20027;-68
2022/04/14 02:13:17;;;;;;;31.10;16.10;;;;;;;5.64;79.50;100938.50;5130276;27;20103;-67
2022/04/14 02:15:43;;;;;;;28.88;16.27;;;;;;;5.59;79.45;100927.28;5119145;27;20073;-67
2022/04/14 02:18:08;;;;;;;27.52;16.60;;;;;;;5.57;79.35;100929.16;5112378;27;20508;-68
2022/04/14 02:20:34;;;;;;;29.00;16.85;;;;;;;5.57;79.88;100933.63;5112283;27;20172;-68
2022/04/14 02:22:59;;;;;;;29.52;18.00;;;;;;;5.52;79.85;100933.91;5117698;27;20031;-64
2022/04/14 02:25:24;;;;;;;28.42;17.02;;;;;;;5.50;80.13;100932.25;5115375;27;20039;-64
2022/04/14 02:27:50;;;;;;;26.98;15.90;;;;;;;5.48;79.96;100926.19;5114824;27;20556;-64
2022/04/14 02:30:15;;;;;;;36.67;17.52;;;;;;;5.46;80.35;100939.56;5117965;27;20084;-64
2022/04/14 02:32:41;;;;;;;29.17;16.50;;;;;;;5.44;80.44;100929.94;5111545;27;20121;-64
2022/04/14 02:35:07;;;;;;;25.38;15.07;;;;;;;5.38;80.58;100922.34;5092011;27;20027;-64
2022/04/14 02:37:32;;;;;;;25.90;14.93;;;;;;;5.36;80.20;100927.75;5102297;27;20026;-64
2022/04/14 02:39:57;;;;;;;28.13;15.23;;;;;;;5.29;80.56;100918.38;5119172;27;20039;-64
2022/04/14 02:42:23;;;;;;;27.25;14.88;;;;;;;5.29;81.47;100917.53;5114684;27;20048;-64
2022/04/14 02:44:48;;;;;;;22.98;14.00;;;;;;;5.23;81.54;100915.22;5112822;27;20495;-64
2022/04/14 02:47:14;;;;;;;23.42;13.95;;;;;;;5.27;81.81;100924.75;5121357;27;20477;-64
2022/04/14 02:49:39;;;;;;;25.90;14.25;;;;;;;5.26;81.73;100931.00;5127110;27;20023;-64
2022/04/14 02:52:05;;;;;;;21.65;12.35;;;;;;;5.26;81.46;100923.03;5112367;27;20521;-64
2022/04/14 02:54:37;;;;;;;22.98;13.85;;;;;;;5.25;81.57;100934.63;5109294;28;20039;-64
2022/04/14 02:57:04;;;;;;;22.55;13.55;;;;;;;5.20;81.68;100921.59;5119410;27;20382;-64
2022/04/14 02:59:30;;;;;;;22.20;13.23;;;;;;;5.18;82.05;100922.59;5095634;28;20022;-64
2022/04/14 03:01:55;;;;;;;22.23;13.05;;;;;;;5.13;81.85;100925.53;5114729;27;20027;-64
2022/04/14 03:04:21;;;;;;;22.13;13.75;;;;;;;5.11;81.56;100926.53;5128624;27;20024;-64
2022/04/14 03:06:46;;;;;;;31.95;14.05;;;;;;;5.07;82.25;100920.56;5102539;27;20031;-64
2022/04/14 03:09:12;;;;;;;26.13;13.48;;;;;;;5.06;83.10;100924.13;5123356;27;20031;-64
2022/04/14 03:11:37;;;;;;;25.73;13.48;;;;;;;5.07;83.06;100927.66;5121143;27;20023;-64
2022/04/14 03:14:02;;;;;;;26.33;13.32;;;;;;;5.06;83.16;100926.78;5129284;27;20126;-64
2022/04/14 03:16:28;;;;;;;24.10;12.25;;;;;;;5.03;83.97;100923.47;5109715;28;20037;-64
2022/04/14 03:18:53;;;;;;;23.75;13.98;;;;;;;5.00;84.01;100928.94;5111520;28;20156;-64
2022/04/14 03:21:19;;;;;;;24.65;13.73;;;;;;;5.00;84.03;100939.56;5103317;27;20024;-65
2022/04/14 03:23:44;;;;;;;27.63;13.93;;;;;;;4.98;84.14;100934.34;5127091;27;20031;-68
2022/04/14 03:26:09;;;;;;;27.67;13.57;;;;;;;4.96;84.03;100936.22;5101107;28;20043;-68
2022/04/14 03:28:36;;;;;;;27.60;13.02;;;;;;;4.95;83.83;100929.19;5126462;27;20392;-68
2022/04/14 03:31:01;;;;;;;25.05;13.93;;;;;;;4.93;84.39;100936.38;5127560;28;20447;-68
2022/04/14 03:33:27;;;;;;;27.00;13.50;;;;;;;4.91;84.53;100921.47;5117321;28;20107;-68
2022/04/14 03:35:52;;;;;;;30.27;13.45;;;;;;;4.89;84.25;100928.66;5120488;28;20024;-67
2022/04/14 03:38:18;;;;;;;36.45;13.48;;;;;;;4.86;84.20;100924.38;5123385;28;20038;-67
2022/04/14 03:40:43;;;;;;;34.83;15.65;;;;;;;4.90;84.31;100927.75;5122133;28;20322;-70
2022/04/14 03:43:08;;;;;;;36.25;16.48;;;;;;;4.85;84.47;100929.78;5125282;27;20302;-68
2022/04/14 03:45:34;;;;;;;30.23;14.57;;;;;;;4.80;84.28;100915.91;5124243;27;20500;-68
2022/04/14 03:47:59;;;;;;;37.38;16.40;;;;;;;4.82;83.72;100937.91;5130854;27;20051;-64
2022/04/14 03:50:25;;;;;;;38.90;17.63;;;;;;;4.82;82.73;100940.56;5122160;27;20019;-64
2022/04/14 03:52:50;;;;;;;38.17;16.30;;;;;;;4.75;82.59;100937.41;5120611;27;20903;-63
2022/04/14 03:55:16;;;;;;;37.95;16.65;;;;;;;4.74;82.66;100930.34;5123222;27;20027;-64
2022/04/14 03:57:41;;;;;;;40.28;19.23;;;;;;;4.73;82.29;100941.94;5118031;27;20023;-64
2022/04/14 04:00:08;;;;;;;39.53;17.77;;;;;;;4.71;82.07;100942.00;5117890;27;20114;-64
2022/04/14 04:02:35;;;;;;;50.63;20.30;;;;;;;4.73;81.39;100947.25;5111855;28;20042;-64
2022/04/14 04:05:01;;;;;;;55.88;21.40;;;;;;;4.72;81.81;100941.09;5121006;27;20062;-68
2022/04/14 04:07:26;;;;;;;65.97;25.08;;;;;;;4.75;82.66;100946.22;5126083;27;20055;-68
2022/04/14 04:09:52;;;;;;;106.68;32.65;;;;;;;4.77;83.15;100954.09;5125918;27;20038;-68
2022/04/14 04:12:19;;;;;;;119.25;39.25;;;;;;;4.77;83.63;100954.09;5120384;27;20644;-68
2022/04/14 04:14:45;;;;;;;153.60;48.17;;;;;;;4.69;83.99;100949.22;5119512;27;20024;-68
2022/04/14 04:17:10;;;;;;;178.45;55.85;;;;;;;4.77;84.21;100956.75;5128136;27;20537;-69
2022/04/14 04:19:38;;;;;;;208.75;64.95;;;;;;;4.79;84.04;100957.53;5125880;27;20028;-68
2022/04/14 04:22:05;;;;;;;239.52;71.38;;;;;;;4.80;83.50;100959.25;5128230;27;20080;-68
2022/04/14 04:24:31;;;;;;;221.02;70.72;;;;;;;4.83;83.91;100966.22;5104321;27;20105;-67
2022/04/14 04:26:56;;;;;;;223.23;65.43;;;;;;;4.85;83.72;100972.28;5108514;27;20188;-68
2022/04/14 04:29:22;;;;;;;199.93;63.58;;;;;;;4.88;83.72;100967.69;5104945;27;20670;-68
2022/04/14 04:31:47;;;;;;;185.07;58.05;;;;;;;4.92;83.95;100963.03;5115511;27;20031;-68
2022/04/14 04:34:13;;;;;;;186.23;57.92;;;;;;;4.99;83.70;100967.94;5115502;27;20026;-68
2022/04/14 04:36:38;;;;;;;187.85;56.20;;;;;;;5.01;83.17;100967.88;5122237;27;20024;-67
2022/04/14 04:39:04;;;;;;;165.02;56.03;;;;;;;5.04;83.11;100970.34;5114332;27;20027;-68
2022/04/14 04:41:30;;;;;;;151.00;48.00;;;;;;;5.07;83.18;100968.41;5125397;27;20034;-68
2022/04/14 04:43:56;;;;;;;147.77;49.00;;;;;;;5.16;83.32;100978.50;5116781;27;20032;-68
2022/04/14 04:46:21;;;;;;;156.40;46.92;;;;;;;5.23;83.38;100982.56;5124542;27;20020;-68
2022/04/14 04:48:47;;;;;;;119.43;42.85;;;;;;;5.30;83.40;100981.28;5102367;28;20092;-68
2022/04/14 04:51:12;;;;;;;93.95;33.67;;;;;;;5.38;83.38;100983.53;5120379;27;20080;-68
2022/04/14 04:53:38;;;;;;;69.88;29.85;;;;;;;5.44;83.15;100992.00;5101775;27;20023;-68
2022/04/14 04:56:04;;;;;;;81.47;29.27;;;;;;;5.44;82.87;100969.84;5117010;27;20066;-68
2022/04/14 04:58:29;;;;;;;52.63;24.27;;;;;;;5.61;82.71;100975.09;5115959;27;20028;-68
2022/04/14 05:00:55;;;;;;;48.13;22.73;;;;;;;5.70;81.97;100985.19;5130295;27;20027;-68
2022/04/14 05:03:21;;;;;;;46.30;23.75;;;;;;;5.78;81.62;100983.84;5126084;27;20531;-68
2022/04/14 05:05:47;;;;;;;49.08;22.00;;;;;;;5.83;81.51;100962.28;5122292;27;20020;-68
2022/04/14 05:08:12;;;;;;;42.20;19.52;;;;;;;6.00;81.21;100975.47;5125114;27;20027;-68
2022/04/14 05:10:38;;;;;;;43.70;19.60;;;;;;;6.11;80.70;100962.38;5125799;27;20141;-68
2022/04/14 05:13:04;;;;;;;39.92;18.35;;;;;;;6.20;80.56;100965.38;5120739;27;20106;-68
2022/04/14 05:15:30;;;;;;;35.20;18.65;;;;;;;6.34;80.01;100970.72;5127905;27;20035;-68
2022/04/14 05:17:55;;;;;;;34.45;17.70;;;;;;;6.45;78.30;100975.41;5125603;27;20418;-69
2022/04/14 05:20:21;;;;;;;32.00;18.48;;;;;;;6.53;76.68;100978.44;5105563;28;20031;-64
2022/04/14 05:22:46;;;;;;;36.05;17.33;;;;;;;6.62;75.67;100978.75;5123870;27;20027;-65
2022/04/14 05:25:11;;;;;;;36.78;16.63;;;;;;;6.68;74.86;100969.53;5123915;27;20058;-65
2022/04/14 05:27:37;;;;;;;27.10;16.10;;;;;;;6.75;74.26;100971.69;5113162;27;20036;-64
2022/04/14 05:30:03;;;;;;;28.15;16.60;;;;;;;6.86;74.23;100963.91;5126570;27;20055;-64
2022/04/14 05:32:29;;;;;;;27.13;14.88;;;;;;;7.07;74.14;100979.53;5097692;28;20544;-64
2022/04/14 05:34:54;;;;;;;29.70;16.95;;;;;;;7.16;72.75;100973.63;5113055;27;20083;-65
2022/04/14 05:37:19;;;;;;;27.55;15.90;;;;;;;7.33;71.91;100986.72;5097419;28;20027;-65
2022/04/14 05:39:46;;;;;;;32.50;15.20;;;;;;;7.42;71.14;100978.13;5111714;27;20380;-65
2022/04/14 05:42:11;;;;;;;29.77;15.43;;;;;;;7.59;70.06;100986.78;5119789;27;20114;-68
2022/04/14 05:44:37;;;;;;;26.17;15.18;;;;;;;7.74;68.74;100993.75;5126469;27;20437;-68
2022/04/14 05:47:03;;;;;;;24.42;15.50;;;;;;;7.90;67.92;100993.63;5127881;27;20068;-68
2022/04/14 05:49:28;;;;;;;29.23;15.23;;;;;;;8.13;65.86;100995.63;5121876;27;20027;-69
2022/04/14 05:51:54;;;;;;;26.33;15.25;;;;;;;8.28;65.40;100990.13;5125397;27;20024;-69
2022/04/14 05:54:19;;;;;;;31.75;15.75;;;;;;;8.44;64.36;100985.47;5127878;27;20031;-68
2022/04/14 05:56:45;;;;;;;30.98;14.55;;;;;;;8.61;64.56;100986.97;5118251;27;20019;-69
2022/04/14 05:59:16;;;;;;;22.55;13.85;;;;;;;8.83;63.43;100992.53;5128079;27;20068;-68
2022/04/14 06:01:46;;;;;;;32.25;15.00;;;;;;;9.07;62.47;100991.66;5101667;27;20027;-69
2022/04/14 06:04:12;;;;;;;30.45;14.23;;;;;;;9.28;61.95;101002.66;5102010;27;20015;-69
2022/04/14 06:06:38;;;;;;;24.33;12.95;;;;;;;9.46;61.45;100987.97;5118532;27;20411;-69
2022/04/14 06:09:04;;;;;;;28.90;13.85;;;;;;;9.69;60.39;100989.81;5126535;27;20465;-69
2022/04/14 06:11:29;;;;;;;25.60;13.38;;;;;;;9.89;59.90;100978.47;5125457;27;20030;-69
2022/04/14 06:13:55;;;;;;;30.73;13.57;;;;;;;10.23;58.92;100990.22;5119839;27;20045;-69
2022/04/14 06:16:21;;;;;;;34.90;14.30;;;;;;;10.52;57.60;100996.91;5110678;27;20027;-68
2022/04/14 06:18:46;;;;;;;28.10;12.18;;;;;;;10.75;56.47;100977.19;5102969;27;20405;-69
2022/04/14 06:21:11;;;;;;;26.25;12.00;;;;;;;11.14;55.28;100991.03;5118739;27;20024;-69
2022/04/14 06:23:37;;;;;;;21.52;11.93;;;;;;;11.42;52.13;100978.94;5118805;27;20023;-69
2022/04/14 06:26:03;;;;;;;29.38;11.95;;;;;;;11.87;50.88;100993.16;5125960;27;20100;-69
2022/04/14 06:28:29;;;;;;;25.27;11.13;;;;;;;12.11;49.66;100967.78;5125112;27;20052;-69
2022/04/14 06:30:56;;;;;;;23.30;10.20;;;;;;;12.51;48.68;100984.09;5121762;27;20110;-69
2022/04/14 06:33:23;;;;;;;16.95;10.35;;;;;;;12.75;47.55;100982.84;5123783;27;20105;-69
2022/04/14 06:35:49;;;;;;;25.70;11.98;;;;;;;13.08;45.89;100976.38;5121589;27;20385;-69
2022/04/14 06:38:15;;;;;;;17.13;10.32;;;;;;;13.34;46.13;100967.72;5126464;27;20031;-70
2022/04/14 06:40:41;;;;;;;19.58;10.75;;;;;;;13.76;45.28;100981.88;5121229;27;20092;-68
2022/04/14 06:43:07;;;;;;;21.20;10.23;;;;;;;14.02;44.32;100982.19;5118235;27;20469;-69
2022/04/14 06:45:32;;;;;;;18.63;10.55;;;;;;;14.29;43.60;100983.25;5121428;27;20055;-69
2022/04/14 06:47:58;;;;;;;20.48;9.90;;;;;;;14.55;41.93;100978.97;5125007;27;20584;-69
2022/04/14 06:50:24;;;;;;;17.30;9.88;;;;;;;14.84;41.72;100989.72;5119754;27;20027;-69
2022/04/14 06:52:51;;;;;;;15.50;9.02;;;;;;;15.08;40.81;100974.72;5125372;27;20361;-69
2022/04/14 06:55:17;;;;;;;14.73;8.95;;;;;;;15.37;40.11;100982.72;5124413;27;20033;-69
2022/04/14 06:57:42;;;;;;;15.95;9.27;;;;;;;15.56;39.43;100980.78;5119559;27;20110;-70
2022/04/14 07:00:08;;;;;;;16.63;9.18;;;;;;;15.80;39.98;100981.06;5103896;28;20034;-69
2022/04/14 07:02:43;;;;;;;15.00;8.60;;;;;;;16.08;37.74;100983.72;5124005;27;20023;-70
2022/04/14 07:05:09;;;;;;;12.70;8.60;;;;;;;16.27;37.39;100970.03;5102949;28;20024;-69
2022/04/14 07:07:34;;;;;;;15.30;8.15;;;;;;;16.52;36.88;100982.84;5119552;27;20084;-70
2022/04/14 07:10:00;;;;;;;10.95;7.53;;;;;;;16.64;36.58;100977.00;5122980;27;20046;-68
2022/04/14 07:12:25;;;;;;;10.88;8.30;;;;;;;16.75;35.57;100981.31;5118145;27;20555;-69
2022/04/14 07:14:51;;;;;;;16.95;8.30;;;;;;;16.78;36.17;100968.31;5128182;27;20109;-66
2022/04/14 07:17:20;;;;;;;16.23;8.88;;;;;;;17.05;35.71;100989.84;5109851;27;20385;-67
2022/04/14 07:19:46;;;;;;;13.82;7.88;;;;;;;17.32;35.38;100988.81;5122921;27;20037;-66
2022/04/14 07:22:16;;;;;;;13.48;7.53;;;;;;;17.54;34.35;100982.84;5108418;28;20176;-67
2022/04/14 07:24:41;;;;;;;16.83;7.45;;;;;;;17.76;34.32;100979.53;5111380;28;20464;-66
2022/04/14 07:27:07;;;;;;;12.05;7.15;;;;;;;17.89;34.22;100979.91;5116123;28;20035;-66
2022/04/14 07:29:33;;;;;;;11.63;6.78;;;;;;;18.02;32.98;100972.13;5123882;27;20660;-66
2022/04/14 07:31:59;;;;;;;8.75;5.82;;;;;;;18.24;31.42;100979.66;5125849;27;20036;-66
2022/04/14 07:34:24;;;;;;;8.95;6.25;;;;;;;18.39;31.05;100975.28;5119509;28;20019;-66
2022/04/14 07:36:49;;;;;;;10.70;6.05;;;;;;;18.54;30.24;100972.75;5120777;28;20023;-66
2022/04/14 07:39:15;;;;;;;11.63;5.70;;;;;;;18.71;30.13;100975.31;5093693;28;20028;-67
2022/04/14 07:41:40;;;;;;;8.68;5.50;;;;;;;18.90;29.11;100983.09;5113530;28;20038;-66
2022/04/14 07:44:06;;;;;;;6.57;4.60;;;;;;;19.06;27.63;100972.16;5123678;28;20969;-67
2022/04/14 07:46:31;;;;;;;7.80;4.65;;;;;;;19.20;27.13;100985.06;5125476;28;20034;-66
2022/04/14 07:48:57;;;;;;;9.35;5.57;;;;;;;19.40;27.67;100988.25;5116574;28;20034;-67
2022/04/14 07:51:22;;;;;;;9.82;5.05;;;;;;;19.60;28.31;100974.06;5108531;28;20023;-67
2022/04/14 07:53:48;;;;;;;9.88;4.93;;;;;;;19.78;27.62;100974.69;5095351;28;20023;-67
2022/04/14 07:56:15;;;;;;;6.78;4.45;;;;;;;19.88;27.04;100966.28;5121864;28;20067;-67
2022/04/14 07:58:43;;;;;;;8.48;5.15;;;;;;;20.00;26.67;100976.56;5109062;28;20058;-67
2022/04/14 08:01:09;;;;;;;7.40;5.75;;;;;;;20.06;27.51;100977.75;5103274;28;20031;-67
2022/04/14 08:03:39;;;;;;;9.98;5.90;;;;;;;20.01;28.19;100972.00;5117328;28;20067;-67
2022/04/14 08:06:08;;;;;;;9.20;6.15;;;;;;;20.07;27.93;100972.13;5123305;28;20090;-67
2022/04/14 08:08:33;;;;;;;5.78;4.78;;;;;;;20.23;27.52;100975.78;5120688;28;20381;-67
2022/04/14 08:11:03;;;;;;;10.73;5.47;;;;;;;20.37;27.53;100956.78;5115855;28;20027;-67
2022/04/14 08:13:30;;;;;;;8.52;4.78;;;;;;;20.73;26.72;100973.38;5123353;28;20054;-67
2022/04/14 08:16:01;;;;;;;7.55;4.50;;;;;;;20.95;26.25;100967.88;5116856;28;20469;-67
2022/04/14 08:18:27;;;;;;;8.50;5.28;;;;;;;21.27;25.53;100974.88;5122818;28;20465;-67
2022/04/14 08:20:53;;;;;;;9.45;5.00;;;;;;;21.80;25.42;100977.34;5128787;28;20092;-67
2022/04/14 08:23:18;;;;;;;7.00;5.05;;;;;;;22.57;24.66;100962.03;5113052;28;20039;-68
2022/04/14 08:25:44;;;;;;;13.32;4.80;;;;;;;23.68;23.42;100969.16;5117754;28;20354;-67
2022/04/14 08:28:09;;;;;;;7.68;4.63;;;;;;;24.78;22.72;100951.34;5092665;28;20113;-67
2022/04/14 08:30:36;;;;;;;6.13;4.80;;;;;;;25.79;21.66;100957.91;5098829;28;20426;-67
2022/04/14 08:33:07;;;;;;;9.35;5.55;;;;;;;26.83;21.31;100962.00;5102878;28;20028;-71
2022/04/14 08:35:33;;;;;;;9.63;4.57;;;;;;;27.86;20.48;100962.00;5102591;28;20028;-71
2022/04/14 08:38:02;;;;;;;7.07;5.18;;;;;;;28.76;19.22;100963.72;5104520;28;20024;-71
2022/04/14 08:40:32;;;;;;;6.28;4.50;;;;;;;29.34;18.73;100949.94;5096337;28;20020;-71
2022/04/14 08:43:06;;;;;;;5.82;4.32;;;;;;;30.16;17.99;100947.59;5104230;28;20035;-71
2022/04/14 08:45:43;;;;;;;4.68;3.92;;;;;;;30.85;17.60;100949.19;5105421;28;20039;-71
2022/04/14 08:48:10;;;;;;;6.72;4.45;;;;;;;30.91;17.37;100934.31;5104107;28;20036;-71
2022/04/14 08:50:36;;;;;;;9.23;4.38;;;;;;;31.21;17.28;100951.41;5101772;28;20393;-71
2022/04/14 08:53:04;;;;;;;5.80;3.70;;;;;;;31.47;16.75;100947.13;5101470;28;20028;-71
2022/04/14 08:55:30;;;;;;;4.75;4.25;;;;;;;31.68;16.28;100952.69;5096928;28;20097;-71
2022/04/14 08:57:56;;;;;;;4.70;3.92;;;;;;;31.55;15.77;100950.31;5109480;27;20461;-71
2022/04/14 09:00:22;;;;;;;6.35;3.33;;;;;;;31.29;15.98;100944.63;5098855;28;20482;-71
2022/04/14 09:02:50;;;;;;;5.68;3.40;;;;;;;30.72;16.58;100940.34;5101395;28;20063;-71
2022/04/14 09:05:17;;;;;;;5.38;3.05;;;;;;;30.00;16.51;100942.00;5103956;27;20110;-71
2022/04/14 09:07:52;;;;;;;5.65;2.88;;;;;;;28.93;16.57;100928.78;5105415;28;20123;-71
2022/04/14 09:10:19;;;;;;;3.58;2.83;;;;;;;28.21;17.40;100945.63;5101707;28;20024;-71
2022/04/14 09:12:51;;;;;;;3.88;2.70;;;;;;;27.28;18.04;100937.88;5098441;28;20032;-70
2022/04/14 09:15:18;;;;;;;4.85;3.22;;;;;;;26.50;18.82;100942.94;5103972;28;20454;-71
2022/04/14 09:17:44;;;;;;;3.95;3.20;;;;;;;26.02;19.13;100940.94;5104747;28;20036;-71
2022/04/14 09:20:38;;;;;;;3.33;2.78;;;;;;;25.44;19.74;100947.50;5103228;28;20036;-70
2022/04/14 09:23:26;;;;;;;5.25;3.10;;;;;;;25.11;19.86;100946.69;5090860;28;20085;-69
2022/04/14 09:26:14;;;;;;;6.05;3.10;;;;;;;24.75;20.44;100947.13;5095486;28;20427;-70
2022/04/14 09:28:41;;;;;;;5.38;2.88;;;;;;;24.64;20.00;100945.03;5120283;27;20124;-70
2022/04/14 09:31:11;;;;;;;6.63;2.90;;;;;;;24.40;20.32;100940.09;5125466;27;20453;-70
2022/04/14 09:33:45;;;;;;;5.82;3.10;;;;;;;24.08;20.48;100936.25;5118625;27;20655;-71
2022/04/14 09:36:18;;;;;;;6.82;3.13;;;;;;;23.97;21.00;100942.34;5117433;27;20023;-70
2022/04/14 09:38:58;;;;;;;4.10;2.85;;;;;;;23.76;21.38;100944.34;5124619;27;20024;-70
2022/04/14 09:41:29;;;;;;;3.72;2.63;;;;;;;23.63;20.34;100936.06;5101240;28;20031;-70
2022/04/14 09:43:57;;;;;;;4.32;2.60;;;;;;;23.54;20.34;100946.31;5124037;27;20218;-70
2022/04/14 09:46:22;;;;;;;4.38;2.80;;;;;;;23.37;20.92;100925.81;5120173;27;20095;-70
2022/04/14 09:49:05;;;;;;;6.95;3.08;;;;;;;23.20;21.70;100932.63;5125558;27;20035;-70
2022/04/14 09:51:32;;;;;;;3.80;2.78;;;;;;;23.10;22.11;100923.94;5122179;27;20386;-69
2022/04/14 09:54:17;;;;;;;4.07;2.55;;;;;;;23.05;21.93;100922.88;5123072;27;20023;-70
2022/04/14 09:56:54;;;;;;;6.38;2.80;;;;;;;22.88;21.74;100919.56;5123101;27;20024;-70
2022/04/14 09:59:21;;;;;;;6.90;2.92;;;;;;;22.82;21.53;100922.28;5114782;27;20028;-70
2022/04/14 10:01:49;;;;;;;3.88;2.60;;;;;;;22.84;21.67;100931.13;5125030;27;20045;-70
2022/04/14 10:04:36;;;;;;;7.38;3.45;;;;;;;22.75;21.96;100919.47;5121756;27;20537;-69
2022/04/14 10:07:04;;;;;;;5.03;2.75;;;;;;;22.70;21.75;100911.00;5116809;27;20023;-70
2022/04/14 10:09:30;;;;;;;3.22;2.60;;;;;;;22.67;22.34;100916.91;5112758;27;20032;-69
2022/04/14 10:11:56;;;;;;;4.70;3.20;;;;;;;22.63;22.49;100923.78;5116982;27;20401;-70
2022/04/14 10:14:24;;;;;;;4.75;3.17;;;;;;;22.59;22.16;100924.38;5115779;27;20031;-69
2022/04/14 10:16:51;;;;;;;8.50;3.08;;;;;;;22.43;22.64;100900.88;5118103;27;20550;-69
2022/04/14 10:19:18;;;;;;;6.57;2.90;;;;;;;22.49;22.35;100919.25;5118130;27;20024;-69
2022/04/14 10:21:44;;;;;;;6.47;3.03;;;;;;;22.43;22.67;100909.06;5115066;27;20145;-69
2022/04/14 10:24:11;;;;;;;4.72;2.58;;;;;;;22.42;22.74;100901.91;5119382;27;20480;-69
2022/04/14 10:26:37;;;;;;;6.32;2.75;;;;;;;22.45;22.49;100907.00;5113694;27;20079;-69
2022/04/14 10:29:06;;;;;;;3.85;2.38;;;;;;;22.37;22.03;100898.91;5120879;27;20051;-70
2022/04/14 10:31:35;;;;;;;9.43;3.17;;;;;;;22.32;22.26;100898.69;5110331;27;20023;-70
2022/04/14 10:34:06;;;;;;;4.75;2.47;;;;;;;22.24;22.40;100880.53;5123125;27;20066;-69
2022/04/14 10:36:37;;;;;;;6.57;2.38;;;;;;;22.17;22.31;100886.97;5121581;27;20068;-68
2022/04/14 10:39:04;;;;;;;7.65;2.30;;;;;;;22.19;21.98;100893.91;5123982;27;20046;-70
2022/04/14 10:41:35;;;;;;;4.22;2.80;;;;;;;22.10;21.74;100889.66;5101925;27;20130;-68
2022/04/14 10:44:02;;;;;;;4.40;2.53;;;;;;;22.09;22.06;100882.47;5123512;27;20028;-67
2022/04/14 10:46:36;;;;;;;5.53;2.47;;;;;;;22.05;22.21;100874.84;5104257;28;20615;-68
2022/04/14 10:49:12;;;;;;;5.00;2.55;;;;;;;22.02;22.01;100875.25;5124838;27;20027;-68
2022/04/14 10:51:39;;;;;;;6.75;2.20;;;;;;;21.87;22.07;100852.63;5125239;27;20457;-67
2022/04/14 10:54:11;;;;;;;4.72;2.65;;;;;;;21.94;22.32;100870.78;5119917;27;20134;-69
2022/04/14 10:56:36;;;;;;;4.18;2.55;;;;;;;21.89;22.29;100870.50;5100809;27;20031;-68
2022/04/14 10:59:03;;;;;;;5.55;2.85;;;;;;;21.85;22.85;100873.81;5126113;27;20038;-68
2022/04/14 11:04:33;;;;;;;3.60;2.65;;;;;;;21.69;23.04;100877.59;5122676;27;20476;-67
2022/04/14 11:07:01;;;;;;;3.85;2.47;;;;;;;21.66;23.23;100875.25;5117539;27;20115;-68
2022/04/14 11:09:42;;;;;;;4.78;2.65;;;;;;;21.63;23.26;100877.50;5122832;27;20022;-69
2022/04/14 11:12:50;;;;;;;4.95;2.50;;;;;;;21.57;23.23;100875.56;5102992;27;20019;-68
2022/04/14 11:15:30;;;;;;;4.75;2.80;;;;;;;21.53;23.22;100880.56;5100918;27;20090;-67
2022/04/14 11:18:03;;;;;;;4.60;2.60;;;;;;;21.43;23.09;100865.50;5118081;27;20023;-68
2022/04/14 11:20:35;;;;;;;3.47;2.43;;;;;;;21.42;22.76;100874.75;5127168;27;20037;-68
2022/04/14 11:23:24;;;;;;;3.58;2.60;;;;;;;21.33;22.70;100868.56;5096748;28;20381;-68